Time;durP1;ratioP1;P1;durP2;ratioP2;P2;SDS_P1;SDS_P2;PMS_P1;PMS_P2;Temp;Humidity;BMP_temperature;BMP_pressure;BME280_temperature;BME280_humidity;BME280_pressure;Samples;Min_cycle;Max_cycle;Signal;HPM_P1;HPM_P2
2021/12/07 00:00:21;;;;;;;5.93;4.05;;;;;;;17.46;52.51;100457.63;4943350;28;20428;-80
2021/12/07 00:02:47;;;;;;;6.28;4.10;;;;;;;17.46;52.35;100463.72;4975087;28;20085;-79
2021/12/07 00:05:15;;;;;;;5.40;3.85;;;;;;;17.45;52.31;100461.97;4959265;28;20501;-80
2021/12/07 00:07:43;;;;;;;5.53;3.72;;;;;;;17.46;52.27;100468.03;4976155;28;20035;-79
2021/12/07 00:10:11;;;;;;;5.25;3.70;;;;;;;17.45;52.14;100469.78;4975645;28;20051;-80
2021/12/07 00:12:39;;;;;;;4.85;3.78;;;;;;;17.45;52.51;100477.59;4975034;28;20121;-79
2021/12/07 00:15:06;;;;;;;5.75;3.63;;;;;;;17.45;52.50;100468.94;4975002;28;20108;-80
2021/12/07 00:17:33;;;;;;;4.70;3.47;;;;;;;17.44;52.42;100468.09;4975009;28;20034;-78
2021/12/07 00:19:59;;;;;;;5.38;3.63;;;;;;;17.44;52.42;100469.81;4975071;28;20496;-78
2021/12/07 00:22:25;;;;;;;4.13;3.58;;;;;;;17.44;52.46;100472.41;4976168;28;20035;-78
2021/12/07 00:24:51;;;;;;;5.57;3.40;;;;;;;17.43;52.37;100474.16;4958740;28;20062;-78
2021/12/07 00:27:17;;;;;;;4.80;3.30;;;;;;;17.43;52.29;100474.16;4942818;28;20125;-79
2021/12/07 00:29:42;;;;;;;4.75;3.25;;;;;;;17.43;52.43;100481.94;4974597;28;20485;-78
2021/12/07 00:32:30;;;;;;;6.72;3.72;;;;;;;17.44;52.53;100483.69;4958596;28;20046;-79
2021/12/07 00:37:46;;;;;;;6.65;3.38;;;;;;;17.43;52.39;100489.75;4961805;28;20122;-79
2021/12/07 00:40:15;;;;;;;4.55;3.35;;;;;;;17.42;52.25;100506.25;4974523;28;20030;-78
2021/12/07 00:42:40;;;;;;;4.53;2.97;;;;;;;17.43;52.36;100513.16;4974436;28;20042;-78
2021/12/07 00:45:08;;;;;;;5.68;3.20;;;;;;;17.42;52.37;100513.19;4958558;28;20035;-80
2021/12/07 00:47:33;;;;;;;5.82;3.28;;;;;;;17.42;52.39;100516.66;4958520;28;20050;-79
2021/12/07 00:49:59;;;;;;;5.60;2.95;;;;;;;17.42;52.40;100521.88;4975621;28;20170;-78
2021/12/07 00:52:24;;;;;;;5.30;3.20;;;;;;;17.42;52.41;100519.25;4974852;28;20034;-79
2021/12/07 00:54:50;;;;;;;5.10;2.90;;;;;;;17.42;52.22;100526.19;4958345;28;20035;-81
2021/12/07 00:57:16;;;;;;;4.40;3.00;;;;;;;17.42;52.45;100529.66;4958302;28;20045;-80
2021/12/07 00:59:41;;;;;;;5.88;2.95;;;;;;;17.42;52.23;100541.78;4959281;28;20078;-79
2021/12/07 01:02:07;;;;;;;4.97;2.80;;;;;;;17.41;52.48;100535.75;4959741;28;20109;-81
2021/12/07 01:04:33;;;;;;;6.85;3.20;;;;;;;17.41;52.43;100546.16;4942752;28;20118;-80
2021/12/07 01:07:04;;;;;;;4.40;2.72;;;;;;;17.41;52.13;100546.16;4958539;28;20038;-81
2021/12/07 01:26:09;;;;;;;3.53;2.40;;;;;;;17.39;52.34;100579.13;4974341;28;20105;-78
2021/12/07 01:28:42;;;;;;;3.35;2.58;;;;;;;17.38;52.09;100574.81;4941923;28;20138;-84
2021/12/07 01:41:46;;;;;;;5.18;2.75;;;;;;;17.37;52.03;100619.88;4959549;28;20037;-85
2021/12/07 01:46:58;;;;;;;3.72;2.45;;;;;;;17.37;52.19;100632.91;4959266;28;20039;-88
2021/12/07 02:00:14;;;;;;;4.97;2.45;;;;;;;17.36;52.07;100622.53;4974635;28;20089;-88
2021/12/07 02:02:41;;;;;;;4.45;2.42;;;;;;;17.35;51.88;100626.84;4974064;28;20039;-88
2021/12/07 02:05:08;;;;;;;4.53;2.38;;;;;;;17.36;51.89;100632.94;4958177;28;20074;-86
2021/12/07 02:07:33;;;;;;;4.57;2.50;;;;;;;17.36;51.91;100640.75;4958068;28;20031;-89
2021/12/07 02:10:05;;;;;;;3.88;1.95;;;;;;;17.35;51.98;100645.06;4958519;28;20039;-88
2021/12/07 02:12:41;;;;;;;4.40;2.38;;;;;;;17.35;51.83;100650.25;4959188;28;20046;-88
2021/12/07 02:15:09;;;;;;;4.30;2.28;;;;;;;17.35;51.56;100646.81;4959341;28;20065;-88
2021/12/07 02:17:35;;;;;;;4.05;2.30;;;;;;;17.34;51.87;100655.50;4958275;28;20035;-87
2021/12/07 02:20:00;;;;;;;3.75;2.10;;;;;;;17.34;51.83;100661.56;4958325;28;20049;-88
2021/12/07 02:22:26;;;;;;;4.15;2.00;;;;;;;17.33;51.94;100657.22;4958447;28;20046;-89
2021/12/07 02:24:52;;;;;;;3.65;2.10;;;;;;;17.34;51.77;100660.69;4974307;28;20035;-90
2021/12/07 02:27:18;;;;;;;3.58;2.13;;;;;;;17.34;51.89;100658.09;4958027;28;20034;-88
2021/12/07 02:29:43;;;;;;;4.15;2.00;;;;;;;17.33;51.94;100662.41;4941923;28;20041;-89
2021/12/07 02:32:09;;;;;;;3.67;2.10;;;;;;;17.32;51.84;100663.31;4960564;28;20126;-90
2021/12/07 02:34:37;;;;;;;2.83;1.83;;;;;;;17.33;51.86;100665.03;4977696;28;20034;-87
2021/12/07 02:37:03;;;;;;;5.20;2.33;;;;;;;17.33;51.85;100678.03;4962046;28;20094;-89
2021/12/07 02:39:40;;;;;;;4.70;2.10;;;;;;;17.32;51.71;100678.06;4961689;28;20039;-87
2021/12/07 02:42:06;;;;;;;4.93;2.30;;;;;;;17.31;51.77;100679.81;4977661;28;20038;-88
2021/12/07 02:44:32;;;;;;;5.57;2.22;;;;;;;17.30;51.76;100685.88;4961592;28;20042;-86
2021/12/07 02:46:58;;;;;;;4.35;1.80;;;;;;;17.31;51.63;100692.81;4961556;28;20481;-88
2021/12/07 02:49:25;;;;;;;4.50;2.03;;;;;;;17.31;51.60;100689.31;4945605;28;20133;-87
2021/12/07 02:51:50;;;;;;;3.13;1.88;;;;;;;17.31;51.47;100699.72;4977847;28;20086;-87
2021/12/07 02:54:17;;;;;;;4.03;1.80;;;;;;;17.31;51.72;100695.41;4961261;28;20039;-88
2021/12/07 02:56:42;;;;;;;4.03;2.05;;;;;;;17.31;51.60;100704.94;4961812;28;20442;-88
2021/12/07 03:55:51;;;;;;;2.97;1.63;;;;;;;17.24;51.52;100750.94;4305942;23;20050;-84
2021/12/07 04:05:56;;;;;;;4.20;2.00;;;;;;;17.22;51.43;100769.19;5019041;28;20040;-85
2021/12/07 04:09:06;;;;;;;4.75;1.50;;;;;;;17.23;51.46;100776.09;4921052;29;20016;-84
2021/12/07 04:22:04;;;;;;;3.08;1.58;;;;;;;17.21;51.68;100770.03;4884653;29;20144;-84
2021/12/07 04:25:09;;;;;;;2.85;1.45;;;;;;;17.21;51.45;100767.44;4890900;29;20021;-84
2021/12/07 04:27:54;;;;;;;3.70;1.75;;;;;;;17.22;51.51;100778.69;4920954;29;20045;-85
2021/12/07 05:00:05;;;;;;;4.88;1.70;;;;;;;17.19;51.45;100815.16;5017484;28;20069;-85
2021/12/07 05:03:17;;;;;;;3.72;1.50;;;;;;;17.18;51.53;100805.59;4996251;28;20037;-85
2021/12/07 06:24:05;;;;;;;4.45;1.60;;;;;;;17.12;52.17;100858.53;1816439;23;20312;-80
2021/12/07 07:35:23;;;;;;;6.57;2.50;;;;;;;17.14;52.44;100859.41;5366073;23;20046;-82
2021/12/07 07:38:08;;;;;;;5.18;2.65;;;;;;;17.14;52.22;100859.41;4967893;28;20102;-81
2021/12/07 07:44:21;;;;;;;4.35;2.08;;;;;;;17.14;52.17;100851.59;4999947;28;20038;-83
2021/12/07 07:47:41;;;;;;;4.63;1.92;;;;;;;17.13;52.07;100860.25;4921914;29;20020;-83
2021/12/07 07:50:45;;;;;;;4.15;2.00;;;;;;;17.17;52.01;100853.31;4906605;29;20140;-81
2021/12/07 09:13:59;;;;;;;3.22;1.60;;;;;;;17.28;51.22;100847.13;4977488;29;20062;-82
2021/12/07 09:25:23;;;;;;;2.70;1.55;;;;;;;17.30;51.22;100852.31;4072959;26;20047;-82
2021/12/07 09:31:22;;;;;;;3.38;1.60;;;;;;;17.28;50.98;100857.53;4959377;29;20051;-82
2021/12/07 09:34:44;;;;;;;3.50;1.70;;;;;;;17.27;51.00;100858.41;4959315;29;20035;-83
2021/12/07 09:37:56;;;;;;;3.75;1.70;;;;;;;17.25;51.21;100862.78;4956278;29;20035;-82
2021/12/07 09:44:13;;;;;;;3.85;1.48;;;;;;;17.28;51.11;100882.69;4959562;29;20118;-82
2021/12/07 09:50:51;;;;;;;3.28;1.65;;;;;;;17.28;50.70;100878.34;4919766;29;20031;-83
2021/12/07 09:57:38;;;;;;;3.08;1.42;;;;;;;17.37;50.69;100887.81;4864324;29;20071;-82
2021/12/07 10:07:37;;;;;;;2.67;1.48;;;;;;;17.36;50.78;100878.28;4863526;29;20051;-82
2021/12/07 10:10:29;;;;;;;3.55;1.50;;;;;;;17.35;50.86;100871.34;4862465;29;20066;-83
2021/12/07 10:13:15;;;;;;;2.38;1.35;;;;;;;17.34;50.81;100867.03;4848096;29;20046;-84
2021/12/07 10:16:03;;;;;;;4.38;1.50;;;;;;;17.33;50.96;100862.69;4863067;29;20066;-83
2021/12/07 10:18:45;;;;;;;3.70;1.50;;;;;;;17.32;50.92;100868.78;4842172;29;20034;-83
2021/12/07 10:21:48;;;;;;;2.42;1.40;;;;;;;17.33;50.63;100867.91;4784466;29;20078;-82
2021/12/07 10:24:48;;;;;;;2.75;1.23;;;;;;;17.35;50.80;100867.91;4820394;29;20031;-82
2021/12/07 10:41:07;;;;;;;3.65;1.60;;;;;;;17.39;50.76;100838.38;4849801;29;20049;-83
2021/12/07 10:44:33;;;;;;;3.45;1.63;;;;;;;17.37;50.75;100820.19;4844466;29;20109;-80
2021/12/07 10:47:59;;;;;;;3.60;1.70;;;;;;;17.37;50.51;100814.97;4865509;29;20042;-83
2021/12/07 11:01:05;;;;;;;2.83;1.50;;;;;;;17.38;50.63;100789.84;4850529;29;20098;-84
2021/12/07 15:32:14;;;;;;;3.63;1.70;;;;;;;17.15;50.93;100260.47;4923843;29;20093;-87
2021/12/07 15:38:47;;;;;;;3.28;1.42;;;;;;;17.13;50.96;100235.41;4885041;29;20042;-85
2021/12/07 16:20:20;;;;;;;3.67;1.45;;;;;;;17.10;50.94;100089.88;4790793;23;20977;-82
2021/12/07 16:22:47;;;;;;;4.07;1.60;;;;;;;17.10;50.82;100082.94;4985842;28;20022;-80
2021/12/07 16:25:33;;;;;;;3.78;1.55;;;;;;;17.10;51.06;100069.94;4975792;28;20050;-81
2021/12/07 18:07:44;;;;;;;4.25;1.20;;;;;;;17.11;51.08;99792.63;5009919;28;20056;-79
2021/12/07 18:23:52;;;;;;;2.30;1.10;;;;;;;17.10;51.26;99719.00;4955631;28;20050;-80
2021/12/07 18:30:15;;;;;;;3.00;1.17;;;;;;;17.11;51.70;99704.25;4959876;29;20402;-86
2021/12/07 18:36:08;;;;;;;3.30;1.50;;;;;;;17.11;51.94;99699.91;4958514;29;20046;-84
2021/12/07 18:38:52;;;;;;;3.08;1.48;;;;;;;17.13;51.78;99685.13;4865455;29;20040;-82
2021/12/07 18:41:24;;;;;;;4.63;1.42;;;;;;;17.13;51.91;99687.72;4907815;29;20167;-81
2021/12/07 18:44:03;;;;;;;3.92;1.40;;;;;;;17.14;52.11;99686.84;4893730;29;20064;-82
2021/12/07 18:46:30;;;;;;;2.20;1.25;;;;;;;17.12;51.56;99666.97;4911297;29;20044;-81
2021/12/07 18:48:57;;;;;;;3.03;1.50;;;;;;;17.12;51.80;99626.22;4903510;29;20040;-80
2021/12/07 18:51:27;;;;;;;3.75;1.30;;;;;;;17.11;51.92;99614.13;4911381;29;20037;-82
2021/12/07 22:11:08;;;;;;;4.15;1.30;;;;;;;17.00;51.66;99205.53;5412221;23;20039;-82
2021/12/07 22:17:26;;;;;;;1.83;1.00;;;;;;;16.99;51.48;99194.31;5017211;28;20045;-81
2021/12/07 22:19:54;;;;;;;4.43;1.25;;;;;;;16.99;51.40;99207.31;5017443;28;20061;-81
2021/12/07 22:23:17;;;;;;;;;;;;;;;;;;;;;
2021/12/07 22:33:15;;;;;;;3.15;1.00;;;;;;;16.98;51.56;99182.19;5016689;28;20038;-81
2021/12/07 22:38:39;;;;;;;2.78;0.82;;;;;;;16.98;51.71;99204.75;5157768;23;20046;-81
2021/12/07 22:56:32;;;;;;;2.30;1.25;;;;;;;16.96;51.39;99163.25;4961326;29;20034;-81
